createdAt,value
2022-12-01T00:00:11.130Z,1024.88
2022-12-01T00:01:11.380Z,1024.89
2022-12-01T00:02:11.266Z,1024.91
2022-12-01T00:03:31.381Z,1024.90
2022-12-01T00:04:11.159Z,1024.87
2022-12-01T00:05:11.422Z,1024.87
2022-12-01T00:06:11.166Z,1024.84
2022-12-01T00:07:11.413Z,1024.85
2022-12-01T00:08:11.170Z,1024.87
2022-12-01T00:09:13.980Z,1024.84
2022-12-01T00:10:12.180Z,1024.81
2022-12-01T00:11:10.957Z,1024.78
2022-12-01T00:12:11.200Z,1024.79
2022-12-01T00:13:30.963Z,1024.79
2022-12-01T00:14:11.197Z,1024.78
2022-12-01T00:15:10.982Z,1024.77
2022-12-01T00:16:11.313Z,1024.77
2022-12-01T00:17:10.984Z,1024.75
2022-12-01T00:18:11.251Z,1024.70
2022-12-01T00:19:11.015Z,1024.77
2022-12-01T00:20:11.282Z,1024.72
2022-12-01T00:21:11.006Z,1024.74
2022-12-01T00:22:11.267Z,1024.73
2022-12-01T00:23:32.035Z,1024.72
2022-12-01T00:24:10.850Z,1024.69
2022-12-01T00:25:11.081Z,1024.75
2022-12-01T00:26:10.844Z,1024.74
2022-12-01T00:27:11.074Z,1024.75
2022-12-01T00:28:10.835Z,1024.74
2022-12-01T00:29:11.065Z,1024.70
2022-12-01T00:30:10.827Z,1024.70
2022-12-01T00:31:11.055Z,1024.68
2022-12-01T00:32:10.848Z,1024.71
2022-12-01T00:33:32.560Z,1024.66
2022-12-01T00:34:11.632Z,1024.65
2022-12-01T00:35:11.097Z,1024.67
2022-12-01T00:36:10.845Z,1024.64
2022-12-01T00:37:11.098Z,1024.65
2022-12-01T00:38:10.855Z,1024.67
2022-12-01T00:39:11.087Z,1024.70
2022-12-01T00:40:10.854Z,1024.69
2022-12-01T00:41:11.079Z,1024.66
2022-12-01T00:42:13.477Z,1024.72
2022-12-01T00:43:32.576Z,1024.69
2022-12-01T00:44:10.876Z,1024.68
2022-12-01T00:45:10.630Z,1024.69
2022-12-01T00:46:10.929Z,1024.73
2022-12-01T00:47:10.618Z,1024.73
2022-12-01T00:48:10.894Z,1024.73
2022-12-01T00:49:10.619Z,1024.75
2022-12-01T00:50:10.886Z,1024.77
2022-12-01T00:51:10.634Z,1024.74
2022-12-01T00:52:10.878Z,1024.79
2022-12-01T00:53:31.280Z,1024.72
2022-12-01T00:54:10.935Z,1024.76
2022-12-01T00:55:10.678Z,1024.71
2022-12-01T00:56:10.440Z,1024.71
2022-12-01T00:57:10.699Z,1024.71
2022-12-01T00:58:10.449Z,1024.74
2022-12-01T00:59:10.695Z,1024.70
2022-12-01T01:00:10.456Z,1024.68
2022-12-01T01:01:10.776Z,1024.68
2022-12-01T01:02:10.506Z,1024.75
2022-12-01T01:03:31.418Z,1024.72
2022-12-01T01:04:10.498Z,1024.70
2022-12-01T01:05:10.736Z,1024.69
2022-12-01T01:06:10.522Z,1024.72
2022-12-01T01:07:10.744Z,1024.74
2022-12-01T01:08:10.549Z,1024.74
2022-12-01T01:09:10.723Z,1024.71
2022-12-01T01:10:10.500Z,1024.71
2022-12-01T01:11:10.731Z,1024.76
2022-12-01T01:12:10.482Z,1024.74
2022-12-01T01:13:31.453Z,1024.75
2022-12-01T01:14:10.536Z,1024.81
2022-12-01T01:15:10.270Z,1024.82
2022-12-01T01:16:10.552Z,1024.80
2022-12-01T01:17:10.256Z,1024.79
2022-12-01T01:18:10.514Z,1024.82
2022-12-01T01:19:10.256Z,1024.81
2022-12-01T01:20:10.502Z,1024.85
2022-12-01T01:21:10.241Z,1024.83
2022-12-01T01:22:10.517Z,1024.86
2022-12-01T01:23:30.966Z,1024.91
2022-12-01T01:24:10.562Z,1024.91
2022-12-01T01:25:10.295Z,1024.91
2022-12-01T01:26:10.581Z,1024.88
2022-12-01T01:27:10.297Z,1024.98
2022-12-01T01:28:11.045Z,1024.95
2022-12-01T01:29:10.277Z,1024.94
2022-12-01T01:30:10.527Z,1024.99
2022-12-01T01:31:10.326Z,1025.00
2022-12-01T01:32:10.528Z,1025.01
2022-12-01T01:33:30.989Z,1024.99
2022-12-01T01:34:10.077Z,1025.02
2022-12-01T01:35:10.319Z,1025.02
2022-12-01T01:36:10.067Z,1025.08
2022-12-01T01:37:10.316Z,1025.10
2022-12-01T01:38:10.081Z,1025.08
2022-12-01T01:39:10.326Z,1025.12
2022-12-01T01:40:10.091Z,1025.11
2022-12-01T01:41:10.338Z,1025.11
2022-12-01T01:42:10.081Z,1025.14
2022-12-01T01:43:31.877Z,1025.11
2022-12-01T01:44:10.159Z,1025.08
2022-12-01T01:45:10.409Z,1025.07
2022-12-01T01:46:10.173Z,1025.11
2022-12-01T01:47:10.413Z,1025.09
2022-12-01T01:48:10.164Z,1025.10
2022-12-01T01:49:09.901Z,1025.10
2022-12-01T01:50:10.167Z,1025.07
2022-12-01T01:51:10.392Z,1025.13
2022-12-01T01:52:10.145Z,1025.10
2022-12-01T01:53:31.383Z,1025.12
2022-12-01T01:54:10.182Z,1025.12
2022-12-01T01:55:09.937Z,1025.19
2022-12-01T01:56:10.189Z,1025.17
2022-12-01T01:57:09.936Z,1025.20
2022-12-01T01:58:10.186Z,1025.20
2022-12-01T01:59:09.928Z,1025.19
2022-12-01T02:00:10.181Z,1025.20
2022-12-01T02:01:09.942Z,1025.20
2022-12-01T02:02:10.229Z,1025.22
2022-12-01T02:03:31.533Z,1025.17
2022-12-01T02:04:09.832Z,1025.18
2022-12-01T02:05:10.065Z,1025.18
2022-12-01T02:06:09.813Z,1025.19
2022-12-01T02:07:10.061Z,1025.19
2022-12-01T02:08:09.834Z,1025.17
2022-12-01T02:09:10.041Z,1025.15
2022-12-01T02:10:09.793Z,1025.10
2022-12-01T02:11:10.039Z,1025.16
2022-12-01T02:12:09.802Z,1025.14
2022-12-01T02:13:30.806Z,1025.08
2022-12-01T02:14:09.851Z,1025.12
2022-12-01T02:15:10.083Z,1025.06
2022-12-01T02:16:09.824Z,1025.08
2022-12-01T02:17:10.089Z,1025.09
2022-12-01T02:18:09.817Z,1025.10
2022-12-01T02:19:10.073Z,1025.12
2022-12-01T02:20:09.828Z,1025.09
2022-12-01T02:21:09.554Z,1025.15
2022-12-01T02:22:09.805Z,1025.15
2022-12-01T02:23:30.784Z,1025.17
2022-12-01T02:24:09.897Z,1025.15
2022-12-01T02:25:09.641Z,1025.15
2022-12-01T02:26:09.885Z,1025.14
2022-12-01T02:27:10.605Z,1025.16
2022-12-01T02:28:09.885Z,1025.14
2022-12-01T02:29:09.608Z,1025.15
2022-12-01T02:30:09.846Z,1025.17
2022-12-01T02:31:10.113Z,1025.13
2022-12-01T02:32:09.851Z,1025.12
2022-12-01T02:33:31.105Z,1025.10
2022-12-01T02:34:09.899Z,1025.15
2022-12-01T02:35:09.626Z,1025.12
2022-12-01T02:36:09.889Z,1025.12
2022-12-01T02:37:09.610Z,1025.12
2022-12-01T02:38:09.869Z,1025.11
2022-12-01T02:39:09.600Z,1025.13
2022-12-01T02:40:09.846Z,1025.10
2022-12-01T02:41:09.578Z,1025.12
2022-12-01T02:42:09.839Z,1025.13
2022-12-01T02:43:30.349Z,1025.14
2022-12-01T02:44:09.377Z,1025.12
2022-12-01T02:45:09.618Z,1025.12
2022-12-01T02:46:09.406Z,1025.12
2022-12-01T02:47:09.599Z,1025.12
2022-12-01T02:48:09.359Z,1025.15
2022-12-01T02:49:09.605Z,1025.14
2022-12-01T02:50:09.349Z,1025.15
2022-12-01T02:51:09.590Z,1025.09
2022-12-01T02:52:09.350Z,1025.12
2022-12-01T02:53:31.139Z,1025.17
2022-12-01T02:54:09.448Z,1025.13
2022-12-01T02:55:09.681Z,1025.16
2022-12-01T02:56:09.442Z,1025.15
2022-12-01T02:57:09.672Z,1025.12
2022-12-01T02:58:09.421Z,1025.15
2022-12-01T02:59:09.653Z,1025.13
2022-12-01T03:00:09.432Z,1025.17
2022-12-01T03:01:09.790Z,1025.15
2022-12-01T03:02:09.455Z,1025.18
2022-12-01T03:03:30.403Z,1025.16
2022-12-01T03:04:09.473Z,1025.15
2022-12-01T03:05:09.225Z,1025.16
2022-12-01T03:06:09.492Z,1025.17
2022-12-01T03:07:09.242Z,1025.17
2022-12-01T03:08:09.581Z,1025.15
2022-12-01T03:09:09.273Z,1025.16
2022-12-01T03:10:09.559Z,1025.16
2022-12-01T03:11:09.332Z,1025.15
2022-12-01T03:12:09.640Z,1025.13
2022-12-01T03:13:30.981Z,1025.11
2022-12-01T03:14:09.312Z,1025.12
2022-12-01T03:15:09.103Z,1025.12
2022-12-01T03:16:09.439Z,1025.13
2022-12-01T03:17:09.149Z,1025.14
2022-12-01T03:18:09.402Z,1025.15
2022-12-01T03:19:09.197Z,1025.10
2022-12-01T03:20:09.452Z,1025.12
2022-12-01T03:21:09.306Z,1025.19
2022-12-01T03:22:09.065Z,1025.15
2022-12-01T03:23:29.877Z,1025.15
2022-12-01T03:24:09.221Z,1025.12
2022-12-01T03:25:09.009Z,1025.13
2022-12-01T03:26:09.312Z,1025.18
2022-12-01T03:27:09.065Z,1025.14
2022-12-01T03:28:24.607Z,1025.16
2022-12-01T03:29:10.096Z,1025.13
2022-12-01T03:30:09.425Z,1025.11
2022-12-01T03:31:09.248Z,1025.11
2022-12-01T03:32:08.968Z,1025.11
2022-12-01T03:33:30.714Z,1025.13
2022-12-01T03:34:09.056Z,1025.16
2022-12-01T03:35:09.314Z,1025.15
2022-12-01T03:36:09.119Z,1025.16
2022-12-01T03:37:08.855Z,1025.17
2022-12-01T03:38:09.137Z,1025.12
2022-12-01T03:39:08.877Z,1025.14
2022-12-01T03:40:09.196Z,1025.12
2022-12-01T03:41:08.907Z,1025.16
2022-12-01T03:42:09.208Z,1025.17
2022-12-01T03:43:29.659Z,1025.10
2022-12-01T03:44:08.808Z,1025.13
2022-12-01T03:45:09.097Z,1025.16
2022-12-01T03:46:08.899Z,1025.14
2022-12-01T03:47:09.131Z,1025.14
2022-12-01T03:48:08.869Z,1025.12
2022-12-01T03:49:09.119Z,1025.11
2022-12-01T03:50:08.864Z,1025.12
2022-12-01T03:51:09.135Z,1025.10
2022-12-01T03:52:08.852Z,1025.09
2022-12-01T03:53:30.613Z,1025.11
2022-12-01T03:54:08.893Z,1025.09
2022-12-01T03:55:08.651Z,1025.12
2022-12-01T03:56:08.883Z,1025.11
2022-12-01T03:57:08.642Z,1025.13
2022-12-01T03:58:08.892Z,1025.11
2022-12-01T03:59:08.642Z,1025.12
2022-12-01T04:00:08.871Z,1025.13
2022-12-01T04:01:08.627Z,1025.17
2022-12-01T04:02:08.945Z,1025.16
2022-12-01T04:03:29.420Z,1025.16
2022-12-01T04:04:08.970Z,1025.16
2022-12-01T04:05:08.725Z,1025.16
2022-12-01T04:06:08.976Z,1025.16
2022-12-01T04:07:08.745Z,1025.21
2022-12-01T04:08:08.519Z,1025.16
2022-12-01T04:09:08.726Z,1025.14
2022-12-01T04:10:08.455Z,1025.21
2022-12-01T04:11:08.716Z,1025.20
2022-12-01T04:12:08.444Z,1025.17
2022-12-01T04:13:30.282Z,1025.18
2022-12-01T04:14:08.556Z,1025.17
2022-12-01T04:15:08.814Z,1025.14
2022-12-01T04:16:08.626Z,1025.16
2022-12-01T04:17:08.848Z,1025.19
2022-12-01T04:18:08.573Z,1025.19
2022-12-01T04:19:08.858Z,1025.19
2022-12-01T04:20:08.576Z,1025.19
2022-12-01T04:21:08.836Z,1025.17
2022-12-01T04:22:08.567Z,1025.19
2022-12-01T04:23:30.420Z,1025.19
2022-12-01T04:24:08.685Z,1025.20
2022-12-01T04:25:08.440Z,1025.17
2022-12-01T04:26:14.265Z,1025.17
2022-12-01T04:27:09.418Z,1025.20
2022-12-01T04:28:08.661Z,1025.18
2022-12-01T04:29:08.420Z,1025.16
2022-12-01T04:30:08.649Z,1025.16
2022-12-01T04:31:08.470Z,1025.16
2022-12-01T04:32:08.635Z,1025.17
2022-12-01T04:33:29.906Z,1025.17
2022-12-01T04:34:08.679Z,1025.17
2022-12-01T04:35:08.422Z,1025.16
2022-12-01T04:36:08.659Z,1025.16
2022-12-01T04:37:08.418Z,1025.15
2022-12-01T04:38:08.651Z,1025.16
2022-12-01T04:39:08.424Z,1025.15
2022-12-01T04:40:08.179Z,1025.19
2022-12-01T04:41:08.433Z,1025.14
2022-12-01T04:42:08.159Z,1025.19
2022-12-01T04:43:29.970Z,1025.12
2022-12-01T04:44:08.255Z,1025.10
2022-12-01T04:45:08.511Z,1025.09
2022-12-01T04:46:08.266Z,1025.08
2022-12-01T04:47:08.522Z,1025.13
2022-12-01T04:48:08.233Z,1025.11
2022-12-01T04:49:08.493Z,1025.13
2022-12-01T04:50:08.230Z,1025.15
2022-12-01T04:51:08.491Z,1025.13
2022-12-01T04:52:08.240Z,1025.14
2022-12-01T04:53:29.993Z,1025.14
2022-12-01T04:54:08.283Z,1025.12
2022-12-01T04:55:08.055Z,1025.15
2022-12-01T04:56:08.285Z,1025.16
2022-12-01T04:57:08.033Z,1025.13
2022-12-01T04:58:08.274Z,1025.15
2022-12-01T04:59:08.028Z,1025.09
2022-12-01T05:00:08.265Z,1025.17
2022-12-01T05:01:08.115Z,1025.12
2022-12-01T05:02:08.318Z,1025.15
2022-12-01T05:03:29.500Z,1025.16
2022-12-01T05:04:08.273Z,1025.18
2022-12-01T05:05:08.050Z,1025.15
2022-12-01T05:06:08.285Z,1025.14
2022-12-01T05:07:08.038Z,1025.13
2022-12-01T05:08:08.374Z,1025.10
2022-12-01T05:09:08.031Z,1025.09
2022-12-01T05:10:08.254Z,1025.10
2022-12-01T05:11:08.007Z,1025.07
2022-12-01T05:12:08.258Z,1025.07
2022-12-01T05:13:28.928Z,1025.05
2022-12-01T05:14:07.846Z,1025.07
2022-12-01T05:15:08.086Z,1025.09
2022-12-01T05:16:07.897Z,1025.08
2022-12-01T05:17:08.106Z,1025.07
2022-12-01T05:18:07.850Z,1025.06
2022-12-01T05:19:08.106Z,1025.09
2022-12-01T05:20:07.878Z,1025.11
2022-12-01T05:21:08.098Z,1025.10
2022-12-01T05:22:07.830Z,1025.15
2022-12-01T05:23:29.081Z,1025.15
2022-12-01T05:24:07.866Z,1025.18
2022-12-01T05:25:08.126Z,1025.16
2022-12-01T05:26:07.902Z,1025.19
2022-12-01T05:27:08.125Z,1025.23
2022-12-01T05:28:07.858Z,1025.23
2022-12-01T05:29:08.124Z,1025.22
2022-12-01T05:30:07.867Z,1025.26
2022-12-01T05:31:08.168Z,1025.27
2022-12-01T05:32:07.861Z,1025.24
2022-12-01T05:33:29.617Z,1025.22
2022-12-01T05:34:07.900Z,1025.26
2022-12-01T05:35:07.658Z,1025.27
2022-12-01T05:36:07.897Z,1025.21
2022-12-01T05:37:07.656Z,1025.25
2022-12-01T05:38:08.349Z,1025.23
2022-12-01T05:39:07.641Z,1025.20
2022-12-01T05:40:07.881Z,1025.23
2022-12-01T05:41:07.650Z,1025.27
2022-12-01T05:42:07.891Z,1025.30
2022-12-01T05:43:29.607Z,1025.27
2022-12-01T05:44:07.495Z,1025.25
2022-12-01T05:45:07.722Z,1025.26
2022-12-01T05:46:07.494Z,1025.25
2022-12-01T05:47:07.727Z,1025.20
2022-12-01T05:48:07.495Z,1025.26
2022-12-01T05:49:07.704Z,1025.24
2022-12-01T05:50:07.479Z,1025.27
2022-12-01T05:51:07.714Z,1025.22
2022-12-01T05:52:07.474Z,1025.26
2022-12-01T05:53:29.214Z,1025.27
2022-12-01T05:54:07.513Z,1025.30
2022-12-01T05:55:07.749Z,1025.27
2022-12-01T05:56:07.496Z,1025.28
2022-12-01T05:57:07.736Z,1025.27
2022-12-01T05:58:07.488Z,1025.35
2022-12-01T05:59:07.736Z,1025.33
2022-12-01T06:00:07.494Z,1025.31
2022-12-01T06:01:07.693Z,1025.30
2022-12-01T06:02:07.485Z,1025.25
2022-12-01T06:03:29.196Z,1025.24
2022-12-01T06:04:07.509Z,1025.28
2022-12-01T06:05:07.726Z,1025.28
2022-12-01T06:06:07.468Z,1025.26
2022-12-01T06:07:07.714Z,1025.29
2022-12-01T06:08:07.463Z,1025.25
2022-12-01T06:09:07.720Z,1025.25
2022-12-01T06:10:07.450Z,1025.27
2022-12-01T06:11:07.704Z,1025.30
2022-12-01T06:12:07.448Z,1025.28
2022-12-01T06:13:29.209Z,1025.27
2022-12-01T06:14:07.488Z,1025.27
2022-12-01T06:15:07.250Z,1025.30
2022-12-01T06:16:07.511Z,1025.34
2022-12-01T06:17:07.242Z,1025.33
2022-12-01T06:18:07.489Z,1025.37
2022-12-01T06:19:07.248Z,1025.37
2022-12-01T06:20:07.491Z,1025.36
2022-12-01T06:21:07.259Z,1025.41
2022-12-01T06:22:07.502Z,1025.36
2022-12-01T06:23:30.620Z,1025.37
2022-12-01T06:24:08.553Z,1025.41
2022-12-01T06:25:07.375Z,1025.40
2022-12-01T06:26:07.102Z,1025.37
2022-12-01T06:27:07.366Z,1025.39
2022-12-01T06:28:07.131Z,1025.38
2022-12-01T06:29:07.392Z,1025.41
2022-12-01T06:30:07.153Z,1025.37
2022-12-01T06:31:07.405Z,1025.38
2022-12-01T06:32:07.203Z,1025.30
2022-12-01T06:33:28.964Z,1025.34
2022-12-01T06:34:07.248Z,1025.36
2022-12-01T06:35:07.519Z,1025.37
2022-12-01T06:36:07.266Z,1025.38
2022-12-01T06:37:07.013Z,1025.38
2022-12-01T06:38:07.260Z,1025.39
2022-12-01T06:39:06.992Z,1025.38
2022-12-01T06:40:07.243Z,1025.43
2022-12-01T06:41:07.004Z,1025.41
2022-12-01T06:42:07.231Z,1025.42
2022-12-01T06:43:28.005Z,1025.42
2022-12-01T06:44:07.277Z,1025.44
2022-12-01T06:45:07.065Z,1025.42
2022-12-01T06:46:07.320Z,1025.44
2022-12-01T06:47:07.043Z,1025.45
2022-12-01T06:48:07.275Z,1025.47
2022-12-01T06:49:07.032Z,1025.49
2022-12-01T06:50:07.277Z,1025.46
2022-12-01T06:51:07.024Z,1025.48
2022-12-01T06:52:07.273Z,1025.48
2022-12-01T06:53:28.045Z,1025.53
2022-12-01T06:54:06.833Z,1025.49
2022-12-01T06:55:07.074Z,1025.50
2022-12-01T06:56:06.826Z,1025.51
2022-12-01T06:57:07.091Z,1025.49
2022-12-01T06:58:06.829Z,1025.53
2022-12-01T06:59:07.087Z,1025.56
2022-12-01T07:00:06.851Z,1025.57
2022-12-01T07:01:07.159Z,1025.59
2022-12-01T07:02:06.949Z,1025.62
2022-12-01T07:03:28.643Z,1025.60
2022-12-01T07:04:06.959Z,1025.63
2022-12-01T07:05:07.228Z,1025.61
2022-12-01T07:06:06.936Z,1025.63
2022-12-01T07:07:06.689Z,1025.63
2022-12-01T07:08:06.950Z,1025.67
2022-12-01T07:09:06.681Z,1025.67
2022-12-01T07:10:06.918Z,1025.70
2022-12-01T07:11:06.677Z,1025.68
2022-12-01T07:12:06.929Z,1025.71
2022-12-01T07:13:33.147Z,1025.71
2022-12-01T07:14:08.005Z,1025.76
2022-12-01T07:15:06.090Z,1025.73
2022-12-01T07:16:06.799Z,1025.78
2022-12-01T07:17:07.116Z,1025.74
2022-12-01T07:18:06.813Z,1025.73
2022-12-01T07:19:06.560Z,1025.76
2022-12-01T07:20:06.812Z,1025.72
2022-12-01T07:21:06.573Z,1025.79
2022-12-01T07:22:06.805Z,1025.75
2022-12-01T07:23:27.520Z,1025.81
2022-12-01T07:24:06.860Z,1025.81
2022-12-01T07:25:06.619Z,1025.78
2022-12-01T07:26:06.855Z,1025.82
2022-12-01T07:27:06.621Z,1025.80
2022-12-01T07:28:06.841Z,1025.81
2022-12-01T07:29:06.621Z,1025.79
2022-12-01T07:30:06.841Z,1025.80
2022-12-01T07:31:06.709Z,1025.89
2022-12-01T07:32:06.847Z,1025.87
2022-12-01T07:33:28.177Z,1025.87
2022-12-01T07:34:06.467Z,1025.85
2022-12-01T07:35:06.734Z,1025.86
2022-12-01T07:36:06.484Z,1025.88
2022-12-01T07:37:06.733Z,1025.89
2022-12-01T07:38:06.472Z,1025.93
2022-12-01T07:39:06.757Z,1025.96
2022-12-01T07:40:06.484Z,1025.92
2022-12-01T07:41:06.742Z,1025.92
2022-12-01T07:42:06.489Z,1025.91
2022-12-01T07:43:28.242Z,1025.92
2022-12-01T07:44:06.547Z,1025.89
2022-12-01T07:45:06.309Z,1025.89
2022-12-01T07:46:06.640Z,1025.89
2022-12-01T07:47:06.299Z,1025.90
2022-12-01T07:48:06.565Z,1025.95
2022-12-01T07:49:06.313Z,1025.92
2022-12-01T07:50:06.646Z,1025.94
2022-12-01T07:51:06.291Z,1025.98
2022-12-01T07:52:06.536Z,1025.94
2022-12-01T07:53:27.284Z,1025.94
2022-12-01T07:54:06.591Z,1025.95
2022-12-01T07:55:06.327Z,1025.91
2022-12-01T07:56:08.838Z,1025.92
2022-12-01T07:57:06.326Z,1025.91
2022-12-01T07:58:06.586Z,1025.93
2022-12-01T07:59:06.318Z,1025.89
2022-12-01T08:00:06.601Z,1025.96
2022-12-01T08:01:06.350Z,1025.91
2022-12-01T08:02:06.684Z,1025.88
2022-12-01T08:03:27.040Z,1025.91
2022-12-01T08:04:06.156Z,1025.92
2022-12-01T08:05:06.392Z,1025.99
2022-12-01T08:06:06.133Z,1025.93
2022-12-01T08:07:06.363Z,1025.98
2022-12-01T08:08:06.187Z,1025.94
2022-12-01T08:09:06.432Z,1025.97
2022-12-01T08:10:06.137Z,1026.00
2022-12-01T08:11:06.378Z,1026.02
2022-12-01T08:12:06.135Z,1026.01
2022-12-01T08:13:26.400Z,1026.00
2022-12-01T08:14:06.147Z,1026.04
2022-12-01T08:15:06.401Z,1026.01
2022-12-01T08:16:06.245Z,1026.04
2022-12-01T08:17:06.389Z,1026.03
2022-12-01T08:18:06.188Z,1026.05
2022-12-01T08:19:06.398Z,1026.09
2022-12-01T08:20:06.162Z,1026.09
2022-12-01T08:21:06.393Z,1026.12
2022-12-01T08:22:05.399Z,1026.12
2022-12-01T08:23:26.941Z,1026.12
2022-12-01T08:24:05.389Z,1026.11
2022-12-01T08:25:05.359Z,1026.11
2022-12-01T08:26:06.112Z,1026.12
2022-12-01T08:27:06.359Z,1026.11
2022-12-01T08:28:06.122Z,1026.17
2022-12-01T08:29:05.857Z,1026.15
2022-12-01T08:30:05.417Z,1026.16
2022-12-01T08:31:05.416Z,1026.19
2022-12-01T08:32:05.560Z,1026.19
2022-12-01T08:33:25.493Z,1026.18
2022-12-01T08:34:05.293Z,1026.22
2022-12-01T08:35:06.712Z,1026.20
2022-12-01T08:36:05.286Z,1026.24
2022-12-01T08:37:05.233Z,1026.21
2022-12-01T08:38:05.241Z,1026.23
2022-12-01T08:39:05.259Z,1026.25
2022-12-01T08:40:05.236Z,1026.28
2022-12-01T08:41:05.211Z,1026.24
2022-12-01T08:42:05.199Z,1026.25
2022-12-01T08:44:06.214Z,1026.27
2022-12-01T08:45:05.229Z,1026.26
2022-12-01T08:46:05.955Z,1026.28
2022-12-01T08:47:05.668Z,1026.25
2022-12-01T08:48:05.934Z,1026.26
2022-12-01T08:49:05.694Z,1026.31
2022-12-01T08:50:05.937Z,1026.28
2022-12-01T08:51:05.670Z,1026.26
2022-12-01T08:52:05.924Z,1026.25
2022-12-01T08:53:25.710Z,1026.30
2022-12-01T08:54:05.952Z,1026.32
2022-12-01T08:55:05.696Z,1026.33
2022-12-01T08:56:05.954Z,1026.36
2022-12-01T08:57:05.710Z,1026.33
2022-12-01T08:58:05.955Z,1026.35
2022-12-01T08:59:05.710Z,1026.35
2022-12-01T09:00:05.997Z,1026.32
2022-12-01T09:01:05.717Z,1026.32
2022-12-01T09:02:07.170Z,1026.29
2022-12-01T09:03:25.730Z,1026.33
2022-12-01T09:04:06.369Z,1026.30
2022-12-01T09:05:05.712Z,1026.23
2022-12-01T09:06:05.486Z,1026.24
2022-12-01T09:07:05.727Z,1026.22
2022-12-01T09:08:05.548Z,1026.22
2022-12-01T09:09:05.741Z,1026.23
2022-12-01T09:10:05.496Z,1026.26
2022-12-01T09:11:05.742Z,1026.23
2022-12-01T09:12:05.489Z,1026.26
2022-12-01T09:13:25.748Z,1026.29
2022-12-01T09:14:05.490Z,1026.24
2022-12-01T09:15:05.732Z,1026.23
2022-12-01T09:16:05.551Z,1026.28
2022-12-01T09:17:05.730Z,1026.26
2022-12-01T09:18:05.499Z,1026.27
2022-12-01T09:19:05.741Z,1026.26
2022-12-01T09:20:05.509Z,1026.26
2022-12-01T09:21:05.740Z,1026.28
2022-12-01T09:22:05.513Z,1026.26
2022-12-01T09:23:25.768Z,1026.29
2022-12-01T09:24:05.514Z,1026.25
2022-12-01T09:25:05.753Z,1026.27
2022-12-01T09:26:07.793Z,1026.25
2022-12-01T09:27:05.243Z,1026.31
2022-12-01T09:28:05.508Z,1026.33
2022-12-01T09:29:05.251Z,1026.28
2022-12-01T09:30:05.514Z,1026.27
2022-12-01T09:31:05.275Z,1026.26
2022-12-01T09:32:05.519Z,1026.24
2022-12-01T09:33:25.291Z,1026.29
2022-12-01T09:34:05.522Z,1026.28
2022-12-01T09:35:05.250Z,1026.33
2022-12-01T09:36:05.518Z,1026.26
2022-12-01T09:37:05.263Z,1026.28
2022-12-01T09:38:05.591Z,1026.34
2022-12-01T09:39:05.274Z,1026.31
2022-12-01T09:40:05.543Z,1026.27
2022-12-01T09:41:05.786Z,1026.29
2022-12-01T09:42:09.103Z,1026.31
2022-12-01T09:43:25.305Z,1026.30
2022-12-01T09:44:05.533Z,1026.28
2022-12-01T09:45:05.303Z,1026.32
2022-12-01T09:46:05.547Z,1026.35
2022-12-01T09:47:05.321Z,1026.31
2022-12-01T09:48:05.038Z,1026.32
2022-12-01T09:49:05.302Z,1026.32
2022-12-01T09:50:05.032Z,1026.30
2022-12-01T09:51:05.287Z,1026.33
2022-12-01T09:52:05.046Z,1026.34
2022-12-01T09:53:25.321Z,1026.32
2022-12-01T09:54:05.039Z,1026.33
2022-12-01T09:55:05.323Z,1026.36
2022-12-01T09:56:11.539Z,1026.31
2022-12-01T09:57:06.318Z,1026.35
2022-12-01T09:58:05.059Z,1026.37
2022-12-01T09:59:05.318Z,1026.36
2022-12-01T10:00:05.053Z,1026.33
2022-12-01T10:01:05.370Z,1026.33
2022-12-01T10:02:05.113Z,1026.29
2022-12-01T10:03:25.339Z,1026.33
2022-12-01T10:04:05.056Z,1026.31
2022-12-01T10:05:05.422Z,1026.27
2022-12-01T10:07:06.337Z,1026.28
2022-12-01T10:08:05.157Z,1026.28
2022-12-01T10:09:05.349Z,1026.25
2022-12-01T10:10:05.061Z,1026.25
2022-12-01T10:11:04.824Z,1026.28
2022-12-01T10:12:05.041Z,1026.27
2022-12-01T10:13:24.809Z,1026.20
2022-12-01T10:14:05.028Z,1026.26
2022-12-01T10:15:04.777Z,1026.22
2022-12-01T10:16:05.070Z,1026.22
2022-12-01T10:17:04.778Z,1026.22
2022-12-01T10:18:05.044Z,1026.23
2022-12-01T10:19:04.780Z,1026.20
2022-12-01T10:20:05.052Z,1026.18
2022-12-01T10:21:04.793Z,1026.17
2022-12-01T10:22:05.055Z,1026.14
2022-12-01T10:23:24.830Z,1026.13
2022-12-01T10:24:05.062Z,1026.13
2022-12-01T10:25:04.802Z,1026.12
2022-12-01T10:26:05.068Z,1026.10
2022-12-01T10:27:04.802Z,1026.10
2022-12-01T10:28:05.079Z,1026.11
2022-12-01T10:29:04.801Z,1026.04
2022-12-01T10:30:05.096Z,1026.11
2022-12-01T10:31:04.885Z,1026.02
2022-12-01T10:32:04.594Z,1026.05
2022-12-01T10:33:24.859Z,1026.07
2022-12-01T10:34:04.571Z,1026.04
2022-12-01T10:35:04.814Z,1026.04
2022-12-01T10:36:04.576Z,1026.08
2022-12-01T10:37:04.813Z,1026.05
2022-12-01T10:38:04.659Z,1026.04
2022-12-01T10:39:04.814Z,1026.03
2022-12-01T10:40:04.569Z,1026.05
2022-12-01T10:41:04.788Z,1026.00
2022-12-01T10:42:04.548Z,1025.99
2022-12-01T10:43:24.811Z,1026.00
2022-12-01T10:44:04.556Z,1025.97
2022-12-01T10:45:04.789Z,1025.93
2022-12-01T10:46:04.600Z,1025.89
2022-12-01T10:47:04.777Z,1025.88
2022-12-01T10:48:04.528Z,1025.89
2022-12-01T10:49:04.757Z,1025.89
2022-12-01T10:50:04.520Z,1025.84
2022-12-01T10:51:04.750Z,1025.86
2022-12-01T10:52:04.505Z,1025.80
2022-12-01T10:53:24.777Z,1025.83
2022-12-01T10:54:04.529Z,1025.84
2022-12-01T10:55:04.745Z,1025.83
2022-12-01T10:56:04.500Z,1025.88
2022-12-01T10:57:04.748Z,1025.82
2022-12-01T10:58:09.093Z,1025.81
2022-12-01T10:59:05.731Z,1025.77
2022-12-01T11:00:04.477Z,1025.79
2022-12-01T11:01:04.715Z,1025.80
2022-12-01T11:02:04.626Z,1025.84
2022-12-01T11:03:24.864Z,1025.76
2022-12-01T11:04:04.481Z,1025.76
2022-12-01T11:05:04.218Z,1025.71
2022-12-01T11:06:05.959Z,1025.74
2022-12-01T11:07:05.824Z,1025.76
2022-12-01T11:08:06.185Z,1025.74
2022-12-01T11:09:05.134Z,1025.71
2022-12-01T11:10:05.749Z,1025.62
2022-12-01T11:11:06.044Z,1025.69
2022-12-01T11:12:05.860Z,1025.64
2022-12-01T11:13:24.696Z,1025.59
2022-12-01T11:14:05.140Z,1025.59
2022-12-01T11:15:04.357Z,1025.66
2022-12-01T11:16:05.695Z,1025.65
2022-12-01T11:17:05.915Z,1025.70
2022-12-01T11:18:04.903Z,1025.53
2022-12-01T11:19:06.071Z,1025.59
2022-12-01T11:20:05.380Z,1025.58
2022-12-01T11:21:05.611Z,1025.45
2022-12-01T11:22:05.977Z,1025.47
2022-12-01T11:23:24.294Z,1025.56
2022-12-01T11:24:06.024Z,1025.55
2022-12-01T11:25:05.865Z,1025.52
2022-12-01T11:26:05.189Z,1025.51
2022-12-01T11:27:05.139Z,1025.52
2022-12-01T11:28:05.760Z,1025.53
2022-12-01T11:29:05.551Z,1025.52
2022-12-01T11:30:05.936Z,1025.49
2022-12-01T11:31:04.230Z,1025.54
2022-12-01T11:32:04.031Z,1025.52
2022-12-01T11:33:24.261Z,1025.45
2022-12-01T11:34:04.000Z,1025.48
2022-12-01T11:35:04.234Z,1025.48
2022-12-01T11:36:04.000Z,1025.51
2022-12-01T11:37:04.230Z,1025.49
2022-12-01T11:38:28.777Z,1025.46
2022-12-01T11:39:05.255Z,1025.47
2022-12-01T11:40:04.029Z,1025.45
2022-12-01T11:41:04.282Z,1025.49
2022-12-01T11:42:04.047Z,1025.44
2022-12-01T11:43:24.290Z,1025.45
2022-12-01T11:44:06.361Z,1025.46
2022-12-01T11:45:05.283Z,1025.42
2022-12-01T11:46:04.088Z,1025.41
2022-12-01T11:47:22.218Z,1025.39
2022-12-01T11:48:05.000Z,1025.41
2022-12-01T11:49:04.252Z,1025.48
2022-12-01T11:50:03.989Z,1025.45
2022-12-01T11:51:05.699Z,1025.44
2022-12-01T11:52:03.982Z,1025.46
2022-12-01T11:53:25.404Z,1025.41
2022-12-01T11:54:04.112Z,1025.41
2022-12-01T11:55:09.791Z,1025.41
2022-12-01T11:56:05.105Z,1025.43
2022-12-01T11:57:32.400Z,1025.38
2022-12-01T11:58:05.111Z,1025.38
2022-12-01T11:59:03.867Z,1025.39
2022-12-01T12:00:04.107Z,1025.38
2022-12-01T12:01:03.882Z,1025.43
2022-12-01T12:02:04.150Z,1025.38
2022-12-01T12:03:25.393Z,1025.45
2022-12-01T12:04:03.657Z,1025.42
2022-12-01T12:05:03.916Z,1025.40
2022-12-01T12:06:18.195Z,1025.36
2022-12-01T12:07:05.648Z,1025.33